sensor_id;sensor_type;location;lat;lon;timestamp;P1;durP1;ratioP1;P2;durP2;ratioP2
35795;SDS011;21916;52.428;13.302;2023-08-20T00:01:30;7.38;;;5.28;;
35795;SDS011;21916;52.428;13.302;2023-08-20T00:03:56;7.95;;;6.10;;
35795;SDS011;21916;52.428;13.302;2023-08-20T00:06:22;6.95;;;5.70;;
35795;SDS011;21916;52.428;13.302;2023-08-20T00:08:48;8.93;;;6.28;;
35795;SDS011;21916;52.428;13.302;2023-08-20T00:11:14;7.30;;;5.43;;
35795;SDS011;21916;52.428;13.302;2023-08-20T00:13:44;8.75;;;5.88;;
35795;SDS011;21916;52.428;13.302;2023-08-20T00:16:10;8.40;;;5.82;;
35795;SDS011;21916;52.428;13.302;2023-08-20T00:18:37;7.22;;;4.97;;
35795;SDS011;21916;52.428;13.302;2023-08-20T00:21:03;8.52;;;5.78;;
35795;SDS011;21916;52.428;13.302;2023-08-20T00:23:29;7.47;;;5.38;;
35795;SDS011;21916;52.428;13.302;2023-08-20T00:25:56;11.32;;;5.65;;
35795;SDS011;21916;52.428;13.302;2023-08-20T00:28:21;8.48;;;5.82;;
35795;SDS011;21916;52.428;13.302;2023-08-20T00:30:47;7.95;;;6.45;;
35795;SDS011;21916;52.428;13.302;2023-08-20T00:33:14;8.32;;;5.85;;
35795;SDS011;21916;52.428;13.302;2023-08-20T00:35:40;8.82;;;6.00;;
35795;SDS011;21916;52.428;13.302;2023-08-20T00:38:08;9.80;;;6.45;;
35795;SDS011;21916;52.428;13.302;2023-08-20T00:40:33;7.03;;;5.38;;
35795;SDS011;21916;52.428;13.302;2023-08-20T00:42:59;7.00;;;5.30;;
35795;SDS011;21916;52.428;13.302;2023-08-20T00:45:25;7.03;;;5.35;;
35795;SDS011;21916;52.428;13.302;2023-08-20T00:47:52;8.85;;;5.75;;
35795;SDS011;21916;52.428;13.302;2023-08-20T00:50:18;6.00;;;4.90;;
35795;SDS011;21916;52.428;13.302;2023-08-20T00:52:44;7.47;;;4.53;;
35795;SDS011;21916;52.428;13.302;2023-08-20T00:55:12;6.25;;;4.20;;
35795;SDS011;21916;52.428;13.302;2023-08-20T00:57:41;5.90;;;4.32;;
35795;SDS011;21916;52.428;13.302;2023-08-20T01:00:07;7.32;;;5.18;;
35795;SDS011;21916;52.428;13.302;2023-08-20T01:02:35;8.05;;;4.53;;
35795;SDS011;21916;52.428;13.302;2023-08-20T01:05:01;5.38;;;4.43;;
35795;SDS011;21916;52.428;13.302;2023-08-20T01:10:19;5.45;;;4.13;;
35795;SDS011;21916;52.428;13.302;2023-08-20T01:12:59;6.25;;;4.00;;
35795;SDS011;21916;52.428;13.302;2023-08-20T01:15:26;5.93;;;3.38;;
35795;SDS011;21916;52.428;13.302;2023-08-20T01:17:52;8.30;;;4.57;;
35795;SDS011;21916;52.428;13.302;2023-08-20T01:20:17;7.38;;;4.68;;
35795;SDS011;21916;52.428;13.302;2023-08-20T01:22:56;5.30;;;3.80;;
35795;SDS011;21916;52.428;13.302;2023-08-20T01:25:30;7.90;;;4.43;;
35795;SDS011;21916;52.428;13.302;2023-08-20T01:28:27;5.43;;;3.97;;
35795;SDS011;21916;52.428;13.302;2023-08-20T01:30:54;6.25;;;3.92;;
35795;SDS011;21916;52.428;13.302;2023-08-20T01:33:22;6.10;;;3.60;;
35795;SDS011;21916;52.428;13.302;2023-08-20T01:35:50;5.13;;;3.42;;
35795;SDS011;21916;52.428;13.302;2023-08-20T01:38:19;6.47;;;3.72;;
35795;SDS011;21916;52.428;13.302;2023-08-20T01:40:46;5.38;;;4.30;;
35795;SDS011;21916;52.428;13.302;2023-08-20T01:43:14;6.95;;;4.55;;
35795;SDS011;21916;52.428;13.302;2023-08-20T01:45:40;4.70;;;3.75;;
35795;SDS011;21916;52.428;13.302;2023-08-20T01:48:06;5.22;;;3.33;;
35795;SDS011;21916;52.428;13.302;2023-08-20T01:50:32;6.22;;;3.72;;
35795;SDS011;21916;52.428;13.302;2023-08-20T01:53:00;6.97;;;4.35;;
35795;SDS011;21916;52.428;13.302;2023-08-20T01:55:26;5.13;;;3.47;;
35795;SDS011;21916;52.428;13.302;2023-08-20T01:57:52;5.80;;;3.83;;
35795;SDS011;21916;52.428;13.302;2023-08-20T02:00:17;4.05;;;3.58;;
35795;SDS011;21916;52.428;13.302;2023-08-20T02:02:43;5.35;;;3.53;;
35795;SDS011;21916;52.428;13.302;2023-08-20T02:05:09;5.75;;;4.05;;
35795;SDS011;21916;52.428;13.302;2023-08-20T02:07:37;4.40;;;3.70;;
35795;SDS011;21916;52.428;13.302;2023-08-20T02:10:03;5.40;;;3.58;;
35795;SDS011;21916;52.428;13.302;2023-08-20T02:12:29;4.97;;;3.65;;
35795;SDS011;21916;52.428;13.302;2023-08-20T02:14:58;4.90;;;3.42;;
35795;SDS011;21916;52.428;13.302;2023-08-20T02:17:24;6.63;;;4.45;;
35795;SDS011;21916;52.428;13.302;2023-08-20T02:19:50;5.63;;;3.75;;
35795;SDS011;21916;52.428;13.302;2023-08-20T02:22:15;5.38;;;3.28;;
35795;SDS011;21916;52.428;13.302;2023-08-20T02:24:42;6.07;;;3.42;;
35795;SDS011;21916;52.428;13.302;2023-08-20T02:27:08;3.55;;;3.22;;
35795;SDS011;21916;52.428;13.302;2023-08-20T02:29:33;5.25;;;3.22;;
35795;SDS011;21916;52.428;13.302;2023-08-20T02:31:59;5.13;;;2.75;;
35795;SDS011;21916;52.428;13.302;2023-08-20T02:34:25;7.38;;;4.25;;
35795;SDS011;21916;52.428;13.302;2023-08-20T02:36:50;5.32;;;2.90;;
35795;SDS011;21916;52.428;13.302;2023-08-20T02:39:16;8.05;;;3.50;;
35795;SDS011;21916;52.428;13.302;2023-08-20T02:41:42;4.78;;;3.25;;
35795;SDS011;21916;52.428;13.302;2023-08-20T02:44:11;4.75;;;3.03;;
35795;SDS011;21916;52.428;13.302;2023-08-20T02:46:36;5.47;;;3.22;;
35795;SDS011;21916;52.428;13.302;2023-08-20T02:49:03;2.70;;;2.47;;
35795;SDS011;21916;52.428;13.302;2023-08-20T02:51:29;6.45;;;3.40;;
35795;SDS011;21916;52.428;13.302;2023-08-20T02:53:54;4.85;;;3.53;;
35795;SDS011;21916;52.428;13.302;2023-08-20T02:56:20;4.88;;;2.83;;
35795;SDS011;21916;52.428;13.302;2023-08-20T02:58:46;4.38;;;3.08;;
35795;SDS011;21916;52.428;13.302;2023-08-20T03:01:22;5.03;;;3.58;;
35795;SDS011;21916;52.428;13.302;2023-08-20T03:03:50;4.45;;;3.28;;
35795;SDS011;21916;52.428;13.302;2023-08-20T03:06:16;5.80;;;3.65;;
35795;SDS011;21916;52.428;13.302;2023-08-20T03:08:42;5.40;;;3.42;;
35795;SDS011;21916;52.428;13.302;2023-08-20T03:11:08;4.60;;;2.92;;
35795;SDS011;21916;52.428;13.302;2023-08-20T03:13:34;4.70;;;3.03;;
35795;SDS011;21916;52.428;13.302;2023-08-20T03:15:59;8.35;;;3.85;;
35795;SDS011;21916;52.428;13.302;2023-08-20T03:18:25;5.78;;;4.15;;
35795;SDS011;21916;52.428;13.302;2023-08-20T03:20:51;4.85;;;3.22;;
35795;SDS011;21916;52.428;13.302;2023-08-20T03:23:17;7.60;;;4.00;;
35795;SDS011;21916;52.428;13.302;2023-08-20T03:25:42;6.35;;;3.25;;
35795;SDS011;21916;52.428;13.302;2023-08-20T03:28:08;6.50;;;4.15;;
35795;SDS011;21916;52.428;13.302;2023-08-20T03:30:36;4.43;;;3.03;;
35795;SDS011;21916;52.428;13.302;2023-08-20T03:33:02;5.80;;;3.90;;
35795;SDS011;21916;52.428;13.302;2023-08-20T03:35:30;5.53;;;3.55;;
35795;SDS011;21916;52.428;13.302;2023-08-20T03:37:57;6.22;;;3.88;;
35795;SDS011;21916;52.428;13.302;2023-08-20T03:40:22;5.47;;;3.28;;
35795;SDS011;21916;52.428;13.302;2023-08-20T03:42:48;4.85;;;3.47;;
35795;SDS011;21916;52.428;13.302;2023-08-20T03:45:16;6.13;;;3.95;;
35795;SDS011;21916;52.428;13.302;2023-08-20T03:47:42;6.13;;;4.07;;
35795;SDS011;21916;52.428;13.302;2023-08-20T03:50:09;4.85;;;3.58;;
35795;SDS011;21916;52.428;13.302;2023-08-20T03:52:35;6.15;;;2.95;;
35795;SDS011;21916;52.428;13.302;2023-08-20T03:55:00;6.85;;;4.20;;
35795;SDS011;21916;52.428;13.302;2023-08-20T03:57:27;4.53;;;4.03;;
35795;SDS011;21916;52.428;13.302;2023-08-20T03:59:53;6.03;;;4.00;;
35795;SDS011;21916;52.428;13.302;2023-08-20T04:02:18;5.03;;;3.63;;
35795;SDS011;21916;52.428;13.302;2023-08-20T04:04:44;4.60;;;2.90;;
35795;SDS011;21916;52.428;13.302;2023-08-20T04:07:10;5.07;;;3.03;;
35795;SDS011;21916;52.428;13.302;2023-08-20T04:09:36;5.53;;;4.00;;
35795;SDS011;21916;52.428;13.302;2023-08-20T04:12:04;6.85;;;4.40;;
35795;SDS011;21916;52.428;13.302;2023-08-20T04:14:30;6.22;;;4.10;;
35795;SDS011;21916;52.428;13.302;2023-08-20T04:16:56;5.13;;;3.90;;
35795;SDS011;21916;52.428;13.302;2023-08-20T04:19:23;5.00;;;4.05;;
35795;SDS011;21916;52.428;13.302;2023-08-20T04:21:48;5.03;;;4.50;;
35795;SDS011;21916;52.428;13.302;2023-08-20T04:24:15;5.45;;;3.42;;
35795;SDS011;21916;52.428;13.302;2023-08-20T04:26:40;6.32;;;4.35;;
35795;SDS011;21916;52.428;13.302;2023-08-20T04:29:06;6.22;;;4.03;;
35795;SDS011;21916;52.428;13.302;2023-08-20T04:31:32;6.47;;;3.97;;
35795;SDS011;21916;52.428;13.302;2023-08-20T04:34:05;4.70;;;3.35;;
35795;SDS011;21916;52.428;13.302;2023-08-20T04:36:39;4.05;;;3.22;;
35795;SDS011;21916;52.428;13.302;2023-08-20T04:39:04;6.25;;;3.97;;
35795;SDS011;21916;52.428;13.302;2023-08-20T04:41:33;7.05;;;4.40;;
35795;SDS011;21916;52.428;13.302;2023-08-20T04:43:59;8.50;;;5.13;;
35795;SDS011;21916;52.428;13.302;2023-08-20T04:46:25;5.82;;;4.47;;
35795;SDS011;21916;52.428;13.302;2023-08-20T04:48:52;7.45;;;4.45;;
35795;SDS011;21916;52.428;13.302;2023-08-20T04:51:20;7.18;;;5.13;;
35795;SDS011;21916;52.428;13.302;2023-08-20T04:53:45;7.97;;;5.60;;
35795;SDS011;21916;52.428;13.302;2023-08-20T04:56:12;6.70;;;4.90;;
35795;SDS011;21916;52.428;13.302;2023-08-20T04:58:38;4.47;;;3.60;;
35795;SDS011;21916;52.428;13.302;2023-08-20T05:01:04;6.20;;;3.80;;
35795;SDS011;21916;52.428;13.302;2023-08-20T05:03:31;7.20;;;4.68;;
35795;SDS011;21916;52.428;13.302;2023-08-20T05:05:57;7.70;;;5.43;;
35795;SDS011;21916;52.428;13.302;2023-08-20T05:08:23;8.10;;;4.75;;
35795;SDS011;21916;52.428;13.302;2023-08-20T05:10:49;6.60;;;4.47;;
35795;SDS011;21916;52.428;13.302;2023-08-20T05:13:19;8.40;;;5.28;;
35795;SDS011;21916;52.428;13.302;2023-08-20T05:15:47;7.63;;;4.72;;
35795;SDS011;21916;52.428;13.302;2023-08-20T05:18:13;7.47;;;4.78;;
35795;SDS011;21916;52.428;13.302;2023-08-20T05:20:39;7.85;;;4.78;;
35795;SDS011;21916;52.428;13.302;2023-08-20T05:23:05;10.82;;;5.07;;
35795;SDS011;21916;52.428;13.302;2023-08-20T05:25:31;6.05;;;4.97;;
35795;SDS011;21916;52.428;13.302;2023-08-20T05:28:00;5.60;;;3.60;;
35795;SDS011;21916;52.428;13.302;2023-08-20T05:30:27;8.10;;;4.53;;
35795;SDS011;21916;52.428;13.302;2023-08-20T05:32:54;6.40;;;5.00;;
35795;SDS011;21916;52.428;13.302;2023-08-20T05:35:21;7.60;;;4.85;;
35795;SDS011;21916;52.428;13.302;2023-08-20T05:37:48;8.63;;;4.47;;
35795;SDS011;21916;52.428;13.302;2023-08-20T05:40:15;8.25;;;4.22;;
35795;SDS011;21916;52.428;13.302;2023-08-20T05:42:42;6.85;;;5.32;;
35795;SDS011;21916;52.428;13.302;2023-08-20T05:45:07;7.45;;;4.97;;
35795;SDS011;21916;52.428;13.302;2023-08-20T05:47:33;7.47;;;4.55;;
35795;SDS011;21916;52.428;13.302;2023-08-20T05:50:00;7.03;;;5.47;;
35795;SDS011;21916;52.428;13.302;2023-08-20T05:52:25;7.07;;;4.60;;
35795;SDS011;21916;52.428;13.302;2023-08-20T05:54:51;7.20;;;5.28;;
35795;SDS011;21916;52.428;13.302;2023-08-20T05:57:17;8.15;;;4.85;;
35795;SDS011;21916;52.428;13.302;2023-08-20T05:59:43;8.00;;;5.05;;
35795;SDS011;21916;52.428;13.302;2023-08-20T06:02:09;7.15;;;4.45;;
35795;SDS011;21916;52.428;13.302;2023-08-20T06:04:35;7.03;;;4.10;;
35795;SDS011;21916;52.428;13.302;2023-08-20T06:07:00;4.60;;;2.63;;
35795;SDS011;21916;52.428;13.302;2023-08-20T06:09:26;8.45;;;3.97;;
35795;SDS011;21916;52.428;13.302;2023-08-20T06:11:52;5.20;;;3.97;;
35795;SDS011;21916;52.428;13.302;2023-08-20T06:14:18;7.18;;;4.38;;
35795;SDS011;21916;52.428;13.302;2023-08-20T06:16:43;5.55;;;4.43;;
35795;SDS011;21916;52.428;13.302;2023-08-20T06:19:09;4.20;;;2.75;;
35795;SDS011;21916;52.428;13.302;2023-08-20T06:21:35;7.72;;;3.85;;
35795;SDS011;21916;52.428;13.302;2023-08-20T06:24:00;9.45;;;4.75;;
35795;SDS011;21916;52.428;13.302;2023-08-20T06:26:26;5.72;;;3.45;;
35795;SDS011;21916;52.428;13.302;2023-08-20T06:28:52;7.53;;;3.80;;
35795;SDS011;21916;52.428;13.302;2023-08-20T06:31:18;4.97;;;2.92;;
35795;SDS011;21916;52.428;13.302;2023-08-20T06:33:44;5.75;;;3.13;;
35795;SDS011;21916;52.428;13.302;2023-08-20T06:36:09;4.25;;;2.75;;
35795;SDS011;21916;52.428;13.302;2023-08-20T06:38:35;5.00;;;3.58;;
35795;SDS011;21916;52.428;13.302;2023-08-20T06:41:01;3.90;;;2.60;;
35795;SDS011;21916;52.428;13.302;2023-08-20T06:43:27;7.22;;;4.88;;
35795;SDS011;21916;52.428;13.302;2023-08-20T06:45:53;8.95;;;4.20;;
35795;SDS011;21916;52.428;13.302;2023-08-20T06:48:19;5.28;;;2.90;;
35795;SDS011;21916;52.428;13.302;2023-08-20T06:50:47;5.72;;;4.03;;
35795;SDS011;21916;52.428;13.302;2023-08-20T06:53:13;6.10;;;3.88;;
35795;SDS011;21916;52.428;13.302;2023-08-20T06:55:38;3.45;;;2.10;;
35795;SDS011;21916;52.428;13.302;2023-08-20T06:58:04;6.03;;;3.42;;
35795;SDS011;21916;52.428;13.302;2023-08-20T07:00:30;8.27;;;4.72;;
35795;SDS011;21916;52.428;13.302;2023-08-20T07:02:55;6.10;;;3.58;;
35795;SDS011;21916;52.428;13.302;2023-08-20T07:05:21;4.38;;;2.70;;
35795;SDS011;21916;52.428;13.302;2023-08-20T07:07:47;4.65;;;2.75;;
35795;SDS011;21916;52.428;13.302;2023-08-20T07:10:12;4.60;;;2.97;;
35795;SDS011;21916;52.428;13.302;2023-08-20T07:12:38;3.33;;;2.25;;
35795;SDS011;21916;52.428;13.302;2023-08-20T07:15:04;3.83;;;2.78;;
35795;SDS011;21916;52.428;13.302;2023-08-20T07:17:31;4.28;;;2.80;;
35795;SDS011;21916;52.428;13.302;2023-08-20T07:19:57;4.38;;;2.78;;
35795;SDS011;21916;52.428;13.302;2023-08-20T07:22:22;5.15;;;3.17;;
35795;SDS011;21916;52.428;13.302;2023-08-20T07:24:48;4.00;;;2.17;;
35795;SDS011;21916;52.428;13.302;2023-08-20T07:27:14;4.20;;;2.45;;
35795;SDS011;21916;52.428;13.302;2023-08-20T07:29:40;5.32;;;2.92;;
35795;SDS011;21916;52.428;13.302;2023-08-20T07:32:06;2.75;;;1.80;;
35795;SDS011;21916;52.428;13.302;2023-08-20T07:34:33;3.97;;;2.78;;
35795;SDS011;21916;52.428;13.302;2023-08-20T07:37:01;6.43;;;3.13;;
35795;SDS011;21916;52.428;13.302;2023-08-20T07:39:28;3.35;;;2.38;;
35795;SDS011;21916;52.428;13.302;2023-08-20T07:41:53;2.00;;;1.30;;
35795;SDS011;21916;52.428;13.302;2023-08-20T07:44:19;4.03;;;2.10;;
35795;SDS011;21916;52.428;13.302;2023-08-20T07:46:45;2.17;;;1.42;;
35795;SDS011;21916;52.428;13.302;2023-08-20T07:49:10;2.65;;;2.35;;
35795;SDS011;21916;52.428;13.302;2023-08-20T07:51:36;2.72;;;1.40;;
35795;SDS011;21916;52.428;13.302;2023-08-20T07:54:02;2.75;;;1.92;;
35795;SDS011;21916;52.428;13.302;2023-08-20T07:56:28;1.90;;;1.33;;
35795;SDS011;21916;52.428;13.302;2023-08-20T07:58:53;5.25;;;1.45;;
35795;SDS011;21916;52.428;13.302;2023-08-20T08:01:19;2.05;;;1.40;;
35795;SDS011;21916;52.428;13.302;2023-08-20T08:03:45;2.58;;;1.38;;
35795;SDS011;21916;52.428;13.302;2023-08-20T08:06:11;2.42;;;1.15;;
35795;SDS011;21916;52.428;13.302;2023-08-20T08:08:37;3.03;;;1.48;;
35795;SDS011;21916;52.428;13.302;2023-08-20T08:11:07;2.03;;;1.40;;
35795;SDS011;21916;52.428;13.302;2023-08-20T08:13:33;2.58;;;1.48;;
35795;SDS011;21916;52.428;13.302;2023-08-20T08:15:58;3.05;;;1.73;;
35795;SDS011;21916;52.428;13.302;2023-08-20T08:18:24;1.27;;;1.17;;
35795;SDS011;21916;52.428;13.302;2023-08-20T08:20:50;2.95;;;1.90;;
35795;SDS011;21916;52.428;13.302;2023-08-20T08:23:15;2.00;;;1.42;;
35795;SDS011;21916;52.428;13.302;2023-08-20T08:25:41;2.75;;;1.42;;
35795;SDS011;21916;52.428;13.302;2023-08-20T08:28:07;2.08;;;1.40;;
35795;SDS011;21916;52.428;13.302;2023-08-20T08:30:33;4.22;;;1.83;;
35795;SDS011;21916;52.428;13.302;2023-08-20T08:32:59;2.17;;;1.10;;
35795;SDS011;21916;52.428;13.302;2023-08-20T08:35:24;0.90;;;0.75;;
35795;SDS011;21916;52.428;13.302;2023-08-20T08:37:50;1.88;;;1.30;;
35795;SDS011;21916;52.428;13.302;2023-08-20T08:40:16;1.00;;;0.88;;
35795;SDS011;21916;52.428;13.302;2023-08-20T08:42:41;4.07;;;1.17;;
35795;SDS011;21916;52.428;13.302;2023-08-20T08:45:09;1.65;;;0.82;;
35795;SDS011;21916;52.428;13.302;2023-08-20T08:47:36;2.50;;;0.90;;
35795;SDS011;21916;52.428;13.302;2023-08-20T08:50:05;1.17;;;0.77;;
35795;SDS011;21916;52.428;13.302;2023-08-20T08:52:34;0.77;;;0.60;;
35795;SDS011;21916;52.428;13.302;2023-08-20T08:55:03;0.88;;;0.88;;
35795;SDS011;21916;52.428;13.302;2023-08-20T08:57:30;1.13;;;0.77;;
35795;SDS011;21916;52.428;13.302;2023-08-20T08:59:56;1.00;;;0.70;;
35795;SDS011;21916;52.428;13.302;2023-08-20T09:02:22;0.80;;;0.80;;
35795;SDS011;21916;52.428;13.302;2023-08-20T09:04:48;1.48;;;0.88;;
35795;SDS011;21916;52.428;13.302;2023-08-20T09:07:14;1.02;;;0.90;;
35795;SDS011;21916;52.428;13.302;2023-08-20T09:09:44;2.88;;;1.08;;
35795;SDS011;21916;52.428;13.302;2023-08-20T09:12:14;1.30;;;0.93;;
35795;SDS011;21916;52.428;13.302;2023-08-20T09:14:50;1.58;;;0.90;;
35795;SDS011;21916;52.428;13.302;2023-08-20T09:17:17;1.27;;;0.63;;
35795;SDS011;21916;52.428;13.302;2023-08-20T09:19:44;0.82;;;0.70;;
35795;SDS011;21916;52.428;13.302;2023-08-20T09:22:14;1.02;;;0.90;;
35795;SDS011;21916;52.428;13.302;2023-08-20T09:24:51;1.70;;;1.10;;
35795;SDS011;21916;52.428;13.302;2023-08-20T09:27:21;1.05;;;0.80;;
35795;SDS011;21916;52.428;13.302;2023-08-20T09:29:47;1.00;;;0.90;;
35795;SDS011;21916;52.428;13.302;2023-08-20T09:32:19;1.35;;;0.93;;
35795;SDS011;21916;52.428;13.302;2023-08-20T09:34:49;1.50;;;1.02;;
35795;SDS011;21916;52.428;13.302;2023-08-20T09:37:17;1.60;;;1.00;;
35795;SDS011;21916;52.428;13.302;2023-08-20T09:39:44;2.53;;;0.70;;
35795;SDS011;21916;52.428;13.302;2023-08-20T09:42:11;0.95;;;0.75;;
35795;SDS011;21916;52.428;13.302;2023-08-20T09:44:38;1.42;;;0.93;;
35795;SDS011;21916;52.428;13.302;2023-08-20T09:47:06;0.90;;;0.90;;
35795;SDS011;21916;52.428;13.302;2023-08-20T09:49:37;1.02;;;0.85;;
35795;SDS011;21916;52.428;13.302;2023-08-20T09:52:05;0.85;;;0.70;;
35795;SDS011;21916;52.428;13.302;2023-08-20T09:57:07;1.95;;;0.77;;
35795;SDS011;21916;52.428;13.302;2023-08-20T09:59:38;1.05;;;0.70;;
35795;SDS011;21916;52.428;13.302;2023-08-20T10:02:06;1.45;;;0.80;;
35795;SDS011;21916;52.428;13.302;2023-08-20T10:04:35;0.98;;;0.88;;
35795;SDS011;21916;52.428;13.302;2023-08-20T10:07:01;1.95;;;1.10;;
35795;SDS011;21916;52.428;13.302;2023-08-20T10:09:28;3.03;;;1.48;;
35795;SDS011;21916;52.428;13.302;2023-08-20T10:11:54;0.85;;;0.73;;
35795;SDS011;21916;52.428;13.302;2023-08-20T10:14:20;0.90;;;0.75;;
35795;SDS011;21916;52.428;13.302;2023-08-20T10:16:46;1.40;;;0.93;;
35795;SDS011;21916;52.428;13.302;2023-08-20T10:19:12;2.05;;;1.23;;
35795;SDS011;21916;52.428;13.302;2023-08-20T10:21:44;2.08;;;0.95;;
35795;SDS011;21916;52.428;13.302;2023-08-20T10:24:17;1.13;;;0.93;;
35795;SDS011;21916;52.428;13.302;2023-08-20T10:26:46;0.88;;;0.80;;
35795;SDS011;21916;52.428;13.302;2023-08-20T10:32:06;0.65;;;0.65;;
35795;SDS011;21916;52.428;13.302;2023-08-20T10:37:12;1.05;;;0.90;;
35795;SDS011;21916;52.428;13.302;2023-08-20T10:39:38;0.88;;;0.68;;
35795;SDS011;21916;52.428;13.302;2023-08-20T10:42:08;0.90;;;0.80;;
35795;SDS011;21916;52.428;13.302;2023-08-20T10:47:40;1.40;;;0.98;;
35795;SDS011;21916;52.428;13.302;2023-08-20T10:50:07;0.60;;;0.60;;
35795;SDS011;21916;52.428;13.302;2023-08-20T10:52:39;1.38;;;0.82;;
35795;SDS011;21916;52.428;13.302;2023-08-20T10:55:07;1.38;;;1.23;;
35795;SDS011;21916;52.428;13.302;2023-08-20T10:57:36;1.60;;;1.05;;
35795;SDS011;21916;52.428;13.302;2023-08-20T11:00:05;0.85;;;0.70;;
35795;SDS011;21916;52.428;13.302;2023-08-20T11:02:36;1.75;;;1.02;;
35795;SDS011;21916;52.428;13.302;2023-08-20T11:05:15;1.00;;;0.80;;
35795;SDS011;21916;52.428;13.302;2023-08-20T11:07:46;0.90;;;0.70;;
35795;SDS011;21916;52.428;13.302;2023-08-20T11:10:16;0.77;;;0.77;;
35795;SDS011;21916;52.428;13.302;2023-08-20T11:12:45;1.85;;;0.82;;
35795;SDS011;21916;52.428;13.302;2023-08-20T11:15:12;0.85;;;0.50;;
35795;SDS011;21916;52.428;13.302;2023-08-20T11:17:41;0.82;;;0.80;;
35795;SDS011;21916;52.428;13.302;2023-08-20T11:20:08;1.08;;;0.80;;
35795;SDS011;21916;52.428;13.302;2023-08-20T11:22:36;1.10;;;1.00;;
35795;SDS011;21916;52.428;13.302;2023-08-20T11:25:03;1.77;;;0.93;;
35795;SDS011;21916;52.428;13.302;2023-08-20T11:27:29;1.15;;;0.70;;
35795;SDS011;21916;52.428;13.302;2023-08-20T11:29:55;0.73;;;0.70;;
35795;SDS011;21916;52.428;13.302;2023-08-20T11:32:23;1.33;;;1.23;;
35795;SDS011;21916;52.428;13.302;2023-08-20T11:34:49;0.93;;;0.70;;
35795;SDS011;21916;52.428;13.302;2023-08-20T11:37:20;1.42;;;0.80;;
35795;SDS011;21916;52.428;13.302;2023-08-20T11:39:47;1.35;;;1.00;;
35795;SDS011;21916;52.428;13.302;2023-08-20T11:42:14;1.13;;;0.77;;
35795;SDS011;21916;52.428;13.302;2023-08-20T11:44:45;1.20;;;0.98;;
35795;SDS011;21916;52.428;13.302;2023-08-20T11:47:17;0.90;;;0.75;;
35795;SDS011;21916;52.428;13.302;2023-08-20T11:49:44;2.28;;;1.33;;
35795;SDS011;21916;52.428;13.302;2023-08-20T11:52:10;0.98;;;0.82;;
35795;SDS011;21916;52.428;13.302;2023-08-20T11:54:37;1.88;;;1.17;;
35795;SDS011;21916;52.428;13.302;2023-08-20T11:57:04;1.75;;;0.90;;
35795;SDS011;21916;52.428;13.302;2023-08-20T11:59:30;0.98;;;0.95;;
35795;SDS011;21916;52.428;13.302;2023-08-20T12:01:57;1.02;;;0.73;;
35795;SDS011;21916;52.428;13.302;2023-08-20T12:04:31;0.60;;;0.60;;
35795;SDS011;21916;52.428;13.302;2023-08-20T12:07:10;0.60;;;0.60;;
35795;SDS011;21916;52.428;13.302;2023-08-20T12:09:39;1.07;;;0.70;;
35795;SDS011;21916;52.428;13.302;2023-08-20T12:12:05;0.80;;;0.47;;
35795;SDS011;21916;52.428;13.302;2023-08-20T12:14:32;1.23;;;0.85;;
35795;SDS011;21916;52.428;13.302;2023-08-20T12:16:57;0.60;;;0.60;;
35795;SDS011;21916;52.428;13.302;2023-08-20T12:19:23;0.40;;;0.38;;
35795;SDS011;21916;52.428;13.302;2023-08-20T12:21:50;0.88;;;0.70;;
35795;SDS011;21916;52.428;13.302;2023-08-20T12:24:15;0.88;;;0.77;;
35795;SDS011;21916;52.428;13.302;2023-08-20T12:26:41;1.02;;;0.68;;
35795;SDS011;21916;52.428;13.302;2023-08-20T12:29:07;1.58;;;0.52;;
35795;SDS011;21916;52.428;13.302;2023-08-20T12:31:33;1.83;;;0.52;;
35795;SDS011;21916;52.428;13.302;2023-08-20T12:34:00;0.60;;;0.60;;
35795;SDS011;21916;52.428;13.302;2023-08-20T12:36:26;0.50;;;0.50;;
35795;SDS011;21916;52.428;13.302;2023-08-20T12:38:52;2.70;;;0.60;;
35795;SDS011;21916;52.428;13.302;2023-08-20T12:41:18;1.75;;;0.57;;
35795;SDS011;21916;52.428;13.302;2023-08-20T12:43:45;0.85;;;0.68;;
35795;SDS011;21916;52.428;13.302;2023-08-20T12:46:10;1.17;;;0.88;;
35795;SDS011;21916;52.428;13.302;2023-08-20T12:48:37;0.63;;;0.63;;
35795;SDS011;21916;52.428;13.302;2023-08-20T12:51:03;0.65;;;0.55;;
35795;SDS011;21916;52.428;13.302;2023-08-20T12:53:28;0.77;;;0.65;;
35795;SDS011;21916;52.428;13.302;2023-08-20T12:55:54;0.98;;;0.70;;
35795;SDS011;21916;52.428;13.302;2023-08-20T12:58:20;0.70;;;0.70;;
35795;SDS011;21916;52.428;13.302;2023-08-20T13:00:47;0.57;;;0.57;;
35795;SDS011;21916;52.428;13.302;2023-08-20T13:03:13;0.50;;;0.50;;
35795;SDS011;21916;52.428;13.302;2023-08-20T13:05:39;0.40;;;0.40;;
35795;SDS011;21916;52.428;13.302;2023-08-20T13:08:05;0.43;;;0.40;;
35795;SDS011;21916;52.428;13.302;2023-08-20T13:10:31;0.75;;;0.50;;
35795;SDS011;21916;52.428;13.302;2023-08-20T13:12:59;0.50;;;0.40;;
35795;SDS011;21916;52.428;13.302;2023-08-20T13:15:26;1.65;;;0.40;;
35795;SDS011;21916;52.428;13.302;2023-08-20T13:17:53;0.40;;;0.40;;
35795;SDS011;21916;52.428;13.302;2023-08-20T13:20:19;0.50;;;0.50;;
35795;SDS011;21916;52.428;13.302;2023-08-20T13:22:50;1.02;;;0.82;;
35795;SDS011;21916;52.428;13.302;2023-08-20T13:25:16;0.77;;;0.50;;
35795;SDS011;21916;52.428;13.302;2023-08-20T13:27:42;0.40;;;0.40;;
35795;SDS011;21916;52.428;13.302;2023-08-20T13:30:09;0.88;;;0.88;;
35795;SDS011;21916;52.428;13.302;2023-08-20T13:32:35;0.77;;;0.68;;
35795;SDS011;21916;52.428;13.302;2023-08-20T13:35:02;0.50;;;0.50;;
35795;SDS011;21916;52.428;13.302;2023-08-20T13:37:30;0.95;;;0.50;;
35795;SDS011;21916;52.428;13.302;2023-08-20T13:39:57;0.30;;;0.30;;
35795;SDS011;21916;52.428;13.302;2023-08-20T13:42:23;1.25;;;0.73;;
35795;SDS011;21916;52.428;13.302;2023-08-20T13:44:49;0.80;;;0.40;;
35795;SDS011;21916;52.428;13.302;2023-08-20T13:47:15;0.70;;;0.32;;
35795;SDS011;21916;52.428;13.302;2023-08-20T13:49:40;0.77;;;0.55;;
35795;SDS011;21916;52.428;13.302;2023-08-20T13:52:06;0.68;;;0.40;;
35795;SDS011;21916;52.428;13.302;2023-08-20T13:54:32;0.77;;;0.30;;
35795;SDS011;21916;52.428;13.302;2023-08-20T13:56:58;0.43;;;0.43;;
35795;SDS011;21916;52.428;13.302;2023-08-20T13:59:24;0.60;;;0.50;;
35795;SDS011;21916;52.428;13.302;2023-08-20T14:01:49;0.82;;;0.73;;
35795;SDS011;21916;52.428;13.302;2023-08-20T14:04:15;0.50;;;0.50;;
35795;SDS011;21916;52.428;13.302;2023-08-20T14:06:41;1.35;;;0.40;;
35795;SDS011;21916;52.428;13.302;2023-08-20T14:09:06;0.93;;;0.65;;
35795;SDS011;21916;52.428;13.302;2023-08-20T14:11:32;1.00;;;0.73;;
35795;SDS011;21916;52.428;13.302;2023-08-20T14:13:58;0.73;;;0.68;;
35795;SDS011;21916;52.428;13.302;2023-08-20T14:16:24;0.45;;;0.35;;
35795;SDS011;21916;52.428;13.302;2023-08-20T14:18:49;0.43;;;0.40;;
35795;SDS011;21916;52.428;13.302;2023-08-20T14:21:16;0.82;;;0.55;;
35795;SDS011;21916;52.428;13.302;2023-08-20T14:23:41;0.40;;;0.40;;
35795;SDS011;21916;52.428;13.302;2023-08-20T14:26:07;0.45;;;0.38;;
35795;SDS011;21916;52.428;13.302;2023-08-20T14:28:33;0.70;;;0.32;;
35795;SDS011;21916;52.428;13.302;2023-08-20T14:31:02;0.77;;;0.45;;
35795;SDS011;21916;52.428;13.302;2023-08-20T14:33:29;0.40;;;0.40;;
35795;SDS011;21916;52.428;13.302;2023-08-20T14:35:57;0.82;;;0.30;;
35795;SDS011;21916;52.428;13.302;2023-08-20T14:38:23;0.70;;;0.50;;
35795;SDS011;21916;52.428;13.302;2023-08-20T14:40:49;1.10;;;0.47;;
35795;SDS011;21916;52.428;13.302;2023-08-20T14:43:14;0.38;;;0.30;;
35795;SDS011;21916;52.428;13.302;2023-08-20T14:45:40;0.30;;;0.30;;